createdAt,value
2022-12-08T00:01:30.046Z,46.85
2022-12-08T00:03:59.860Z,51.38
2022-12-08T00:06:52.354Z,46.95
2022-12-08T00:09:39.071Z,87.40
2022-12-08T00:12:14.547Z,70.47
2022-12-08T00:14:45.542Z,72.50
2022-12-08T00:17:15.382Z,74.28
2022-12-08T00:19:43.686Z,78.80
2022-12-08T00:22:12.402Z,77.70
2022-12-08T00:24:43.792Z,52.37
2022-12-08T00:27:14.123Z,63.92
2022-12-08T00:29:44.694Z,76.78
2022-12-08T00:32:11.969Z,66.90
2022-12-08T00:34:39.135Z,67.22
2022-12-08T00:37:06.283Z,42.30
2022-12-08T00:39:33.515Z,49.10
2022-12-08T00:42:12.875Z,53.72
2022-12-08T00:44:45.135Z,50.47
2022-12-08T00:47:13.597Z,40.17
2022-12-08T00:49:41.427Z,61.65
2022-12-08T00:52:08.994Z,38.50
2022-12-08T00:54:36.490Z,48.10
2022-12-08T00:57:03.794Z,45.42
2022-12-08T00:59:31.036Z,37.30
2022-12-08T01:01:58.404Z,37.03
2022-12-08T01:04:25.596Z,36.63
2022-12-08T01:06:53.072Z,35.00
2022-12-08T01:09:20.237Z,44.65
2022-12-08T01:11:47.552Z,45.83
2022-12-08T01:14:14.927Z,48.33
2022-12-08T01:16:42.417Z,53.60
2022-12-08T01:19:12.396Z,40.70
2022-12-08T01:21:40.688Z,45.80
2022-12-08T01:24:16.290Z,48.15
2022-12-08T01:26:44.029Z,45.72
2022-12-08T01:29:11.682Z,30.27
2022-12-08T01:31:39.905Z,38.13
2022-12-08T01:34:08.127Z,35.92
2022-12-08T01:36:39.066Z,39.97
2022-12-08T01:39:12.914Z,41.63
2022-12-08T01:41:40.194Z,46.47
2022-12-08T01:44:13.050Z,45.92
2022-12-08T01:46:46.712Z,40.25
2022-12-08T01:49:24.007Z,55.70
2022-12-08T01:52:08.965Z,41.47
2022-12-08T01:54:52.950Z,38.40
2022-12-08T01:57:38.968Z,35.97
2022-12-08T02:00:12.804Z,31.92
2022-12-08T02:02:49.304Z,33.92
2022-12-08T02:05:18.483Z,39.22
2022-12-08T02:07:47.858Z,48.20
2022-12-08T02:10:20.042Z,33.97
2022-12-08T02:12:50.467Z,51.05
2022-12-08T02:15:18.162Z,36.45
2022-12-08T02:18:40.166Z,29.80
2022-12-08T02:21:33.281Z,36.42
2022-12-08T02:24:12.966Z,26.45
2022-12-08T02:27:14.609Z,29.15
2022-12-08T02:29:56.557Z,38.90
2022-12-08T02:32:58.566Z,36.78
2022-12-08T02:35:56.103Z,48.58
2022-12-08T02:38:41.951Z,30.02
2022-12-08T02:41:53.135Z,42.70
2022-12-08T02:45:00.598Z,30.98
2022-12-08T02:47:28.856Z,38.78
2022-12-08T02:49:56.916Z,32.17
2022-12-08T02:52:23.943Z,45.08
2022-12-08T02:55:02.343Z,34.85
2022-12-08T02:57:37.500Z,41.50
2022-12-08T03:00:13.512Z,29.27
2022-12-08T03:03:07.951Z,40.67
2022-12-08T03:05:47.030Z,29.05
2022-12-08T03:08:32.116Z,45.72
2022-12-08T03:11:32.469Z,37.33
2022-12-08T03:14:02.160Z,49.42
2022-12-08T03:16:34.441Z,32.72
2022-12-08T03:19:30.035Z,42.85
2022-12-08T03:22:02.811Z,64.47
2022-12-08T03:24:40.287Z,31.08
2022-12-08T03:27:20.538Z,33.45
2022-12-08T03:29:51.443Z,40.95
2022-12-08T03:32:49.319Z,26.75
2022-12-08T03:35:33.433Z,30.67
2022-12-08T03:38:10.243Z,30.65
2022-12-08T03:40:38.870Z,54.60
2022-12-08T03:43:06.751Z,37.35
2022-12-08T03:45:34.199Z,32.63
2022-12-08T03:48:01.492Z,29.23
2022-12-08T03:50:28.607Z,28.58
2022-12-08T03:52:55.732Z,26.98
2022-12-08T03:55:22.866Z,34.03
2022-12-08T03:57:50.016Z,26.13
2022-12-08T04:00:17.486Z,30.60
2022-12-08T04:02:44.763Z,24.02
2022-12-08T04:05:11.917Z,27.70
2022-12-08T04:07:39.116Z,29.67
2022-12-08T04:10:07.266Z,26.13
2022-12-08T04:12:34.591Z,26.30
2022-12-08T04:15:01.653Z,24.70
2022-12-08T04:17:28.733Z,20.55
2022-12-08T04:19:55.915Z,34.45
2022-12-08T04:22:23.157Z,34.85
2022-12-08T04:24:50.369Z,40.50
2022-12-08T04:27:17.486Z,54.05
2022-12-08T04:29:44.832Z,29.65
2022-12-08T04:32:11.944Z,33.80
2022-12-08T04:34:39.129Z,29.65
2022-12-08T04:37:06.327Z,38.70
2022-12-08T04:39:33.519Z,36.00
2022-12-08T04:42:00.679Z,34.38
2022-12-08T04:44:27.822Z,30.13
2022-12-08T04:46:55.036Z,29.67
2022-12-08T04:49:22.474Z,33.13
2022-12-08T04:51:49.676Z,38.00
2022-12-08T04:54:16.775Z,40.72
2022-12-08T04:56:43.897Z,32.88
2022-12-08T04:59:10.994Z,31.42
2022-12-08T05:01:38.352Z,25.80
2022-12-08T05:04:05.642Z,27.55
2022-12-08T05:06:32.832Z,26.77
2022-12-08T05:08:59.974Z,35.20
2022-12-08T05:11:27.034Z,31.88
2022-12-08T05:13:54.218Z,32.53
2022-12-08T05:16:21.381Z,26.10
2022-12-08T05:18:48.578Z,23.70
2022-12-08T05:21:15.800Z,21.23
2022-12-08T05:23:43.155Z,25.55
2022-12-08T05:26:10.494Z,21.33
2022-12-08T05:28:42.219Z,25.58
2022-12-08T05:31:15.631Z,24.65
2022-12-08T05:33:44.781Z,25.25
2022-12-08T05:36:14.425Z,21.52
2022-12-08T05:41:17.920Z,22.50
2022-12-08T05:43:46.204Z,24.40
2022-12-08T05:46:13.735Z,25.70
2022-12-08T05:48:40.928Z,37.80
2022-12-08T05:51:19.466Z,41.47
2022-12-08T05:53:48.772Z,70.80
2022-12-08T05:56:17.243Z,46.28
2022-12-08T05:58:45.347Z,32.08
2022-12-08T06:01:24.439Z,50.70
2022-12-08T06:03:52.595Z,76.78
2022-12-08T06:06:20.695Z,122.10
2022-12-08T06:08:47.961Z,38.70
2022-12-08T06:11:28.619Z,36.05
2022-12-08T06:13:56.763Z,37.58
2022-12-08T06:16:26.106Z,35.42
2022-12-08T06:18:54.148Z,40.33
2022-12-08T06:21:21.599Z,34.65
2022-12-08T06:23:51.939Z,34.35
2022-12-08T06:26:19.838Z,60.35
2022-12-08T06:28:47.130Z,41.63
2022-12-08T06:31:19.983Z,52.28
2022-12-08T06:33:48.255Z,39.10
2022-12-08T06:36:18.459Z,49.47
2022-12-08T06:38:46.136Z,37.90
2022-12-08T06:41:14.125Z,46.63
2022-12-08T06:43:41.922Z,23.35
2022-12-08T06:46:17.441Z,33.40
2022-12-08T06:48:44.798Z,32.67
2022-12-08T06:51:15.908Z,37.72
2022-12-08T06:53:44.412Z,58.80
2022-12-08T06:56:12.988Z,31.38
2022-12-08T06:58:45.060Z,37.42
2022-12-08T07:01:16.176Z,31.38
2022-12-08T07:03:43.732Z,39.47
2022-12-08T07:06:16.306Z,39.05
2022-12-08T07:08:43.650Z,30.27
2022-12-08T07:11:14.201Z,34.28
2022-12-08T07:13:43.911Z,35.08
2022-12-08T07:16:12.634Z,44.67
2022-12-08T07:18:41.006Z,48.70
2022-12-08T07:21:11.730Z,62.97
2022-12-08T07:23:39.043Z,75.97
2022-12-08T07:26:07.941Z,55.95
2022-12-08T07:28:38.058Z,48.50
2022-12-08T07:31:06.769Z,52.13
2022-12-08T07:33:35.568Z,80.28
2022-12-08T07:36:06.046Z,53.42
2022-12-08T07:38:33.747Z,51.33
2022-12-08T07:41:01.097Z,37.50
2022-12-08T07:43:28.552Z,43.47
2022-12-08T07:45:55.826Z,48.78
2022-12-08T07:48:23.239Z,54.40
2022-12-08T07:50:50.439Z,47.45
2022-12-08T07:53:17.581Z,48.03
2022-12-08T07:55:44.939Z,32.67
2022-12-08T07:58:12.160Z,52.58
2022-12-08T08:00:39.569Z,45.28
2022-12-08T08:03:08.317Z,46.92
2022-12-08T08:05:35.564Z,46.67
2022-12-08T08:08:03.202Z,45.28
2022-12-08T08:10:30.788Z,47.85
2022-12-08T08:13:01.330Z,51.25
2022-12-08T08:15:30.174Z,53.45
2022-12-08T08:17:57.455Z,47.28
2022-12-08T08:20:24.685Z,42.22
2022-12-08T08:22:52.251Z,42.05
2022-12-08T08:25:23.936Z,37.75
2022-12-08T08:27:51.299Z,34.65
2022-12-08T08:30:20.999Z,25.17
2022-12-08T08:32:49.682Z,32.92
2022-12-08T08:35:17.189Z,31.40
2022-12-08T08:37:48.522Z,23.77
2022-12-08T08:40:17.573Z,20.50
2022-12-08T08:42:44.847Z,25.50
2022-12-08T08:45:12.207Z,20.30
2022-12-08T08:47:39.408Z,27.63
2022-12-08T08:50:07.867Z,19.48
2022-12-08T08:52:35.375Z,20.40
2022-12-08T08:55:02.918Z,21.67
2022-12-08T08:57:30.053Z,13.27
2022-12-08T08:59:57.168Z,18.13
2022-12-08T09:02:24.829Z,20.05
2022-12-08T09:04:52.177Z,15.07
2022-12-08T09:07:19.388Z,15.85
2022-12-08T09:09:46.844Z,17.27
2022-12-08T09:12:14.281Z,16.13
2022-12-08T09:14:41.503Z,15.93
2022-12-08T09:17:09.066Z,24.75
2022-12-08T09:19:36.315Z,22.50
2022-12-08T09:22:04.391Z,18.73
2022-12-08T09:24:31.599Z,18.33
2022-12-08T09:26:58.880Z,21.42
2022-12-08T09:29:28.754Z,15.93
2022-12-08T09:31:59.791Z,18.08
2022-12-08T09:34:26.991Z,18.02
2022-12-08T09:36:54.242Z,16.80
2022-12-08T09:39:21.498Z,22.13
2022-12-08T09:41:59.807Z,18.85
2022-12-08T09:44:56.678Z,12.77
2022-12-08T09:47:38.662Z,15.00
2022-12-08T09:50:32.873Z,16.15
2022-12-08T09:53:19.230Z,15.35
2022-12-08T09:55:55.947Z,19.38
2022-12-08T09:58:43.747Z,19.13
2022-12-08T10:01:11.734Z,20.85
2022-12-08T10:03:39.917Z,17.95
2022-12-08T10:06:47.288Z,12.20
2022-12-08T10:09:29.472Z,14.48
2022-12-08T10:12:08.304Z,18.73
2022-12-08T10:14:45.024Z,20.60
2022-12-08T10:17:44.171Z,20.10
2022-12-08T10:20:24.726Z,20.30
2022-12-08T10:23:29.704Z,26.98
2022-12-08T10:26:03.283Z,20.92
2022-12-08T10:28:32.833Z,20.80
2022-12-08T10:31:00.320Z,24.50
2022-12-08T10:33:31.619Z,34.15
2022-12-08T10:36:02.502Z,26.08
2022-12-08T10:38:33.283Z,25.40
2022-12-08T10:41:09.631Z,30.13
2022-12-08T10:43:47.067Z,22.45
2022-12-08T10:46:19.039Z,25.52
2022-12-08T10:48:53.631Z,23.08
2022-12-08T10:51:34.162Z,23.35
2022-12-08T10:54:01.538Z,21.77
2022-12-08T10:56:31.104Z,19.23
2022-12-08T11:01:50.827Z,22.02
2022-12-08T11:04:21.871Z,23.17
2022-12-08T11:06:51.354Z,23.80
2022-12-08T11:09:18.602Z,29.55
2022-12-08T11:12:06.614Z,28.45
2022-12-08T11:15:02.510Z,33.53
2022-12-08T11:17:40.686Z,29.42
2022-12-08T11:20:10.865Z,30.95
2022-12-08T11:23:00.990Z,30.50
2022-12-08T11:25:28.315Z,29.25
2022-12-08T11:28:01.131Z,23.90
2022-12-08T11:30:37.026Z,23.52
2022-12-08T11:33:26.675Z,29.92
2022-12-08T11:36:09.639Z,37.40
2022-12-08T11:38:43.580Z,32.15
2022-12-08T11:41:18.235Z,36.78
2022-12-08T11:44:40.432Z,34.90
2022-12-08T11:47:31.020Z,36.78
2022-12-08T11:50:42.224Z,32.70
2022-12-08T11:53:38.014Z,31.48
2022-12-08T11:56:36.827Z,41.42
2022-12-08T11:59:37.540Z,35.42
2022-12-08T12:02:11.453Z,36.35
2022-12-08T12:04:44.310Z,37.83
2022-12-08T12:08:03.209Z,33.15
2022-12-08T12:11:10.499Z,39.47
2022-12-08T12:14:00.427Z,38.70
2022-12-08T12:17:05.811Z,50.42
2022-12-08T12:19:38.623Z,35.90
2022-12-08T12:22:17.413Z,36.88
2022-12-08T12:24:49.795Z,45.53
2022-12-08T12:27:32.331Z,70.20
2022-12-08T12:30:33.588Z,49.17
2022-12-08T12:33:02.107Z,42.45
2022-12-08T12:35:32.114Z,46.20
2022-12-08T12:38:28.487Z,76.45
2022-12-08T12:41:02.161Z,64.13
2022-12-08T12:43:35.555Z,117.18
2022-12-08T12:46:24.688Z,63.95
2022-12-08T12:48:52.653Z,64.07
2022-12-08T12:51:38.719Z,71.53
2022-12-08T12:54:24.356Z,111.85
2022-12-08T12:56:55.630Z,80.47
2022-12-08T12:59:44.158Z,66.65
2022-12-08T13:02:27.924Z,54.80
2022-12-08T13:05:26.186Z,40.88
2022-12-08T13:07:53.384Z,34.55
2022-12-08T13:10:25.470Z,52.10
2022-12-08T13:13:10.058Z,46.60
2022-12-08T13:16:18.507Z,51.28
2022-12-08T13:19:03.318Z,52.72
2022-12-08T13:21:37.701Z,50.97
2022-12-08T13:24:13.477Z,45.75
2022-12-08T13:26:47.124Z,49.88
2022-12-08T13:29:25.685Z,38.95
2022-12-08T13:31:54.036Z,62.58
2022-12-08T13:34:41.537Z,39.63
2022-12-08T13:37:11.795Z,41.50
2022-12-08T13:39:38.838Z,58.95
2022-12-08T13:42:12.206Z,95.40
2022-12-08T13:45:30.137Z,47.65
2022-12-08T13:57:33.155Z,63.08
2022-12-08T14:00:15.660Z,46.15
2022-12-08T14:02:48.374Z,47.58
2022-12-08T14:05:29.778Z,82.35
2022-12-08T14:11:35.922Z,64.32
2022-12-08T14:15:02.562Z,61.78
2022-12-08T14:17:21.739Z,51.85
2022-12-08T14:22:41.052Z,119.60
2022-12-08T14:25:16.615Z,62.58
2022-12-08T14:27:44.653Z,73.25
2022-12-08T14:30:41.908Z,66.78
2022-12-08T14:33:16.464Z,85.75
2022-12-08T14:35:50.882Z,44.25
2022-12-08T14:38:20.545Z,59.58
2022-12-08T14:41:02.334Z,52.22
2022-12-08T14:43:31.391Z,53.83
2022-12-08T14:46:22.664Z,69.40
2022-12-08T14:48:50.063Z,92.22
2022-12-08T14:51:20.474Z,52.72
2022-12-08T14:54:00.530Z,65.15
2022-12-08T14:56:51.105Z,68.18
2022-12-08T14:59:30.083Z,73.13
2022-12-08T15:02:15.615Z,77.70
2022-12-08T15:04:46.994Z,76.57
2022-12-08T15:07:14.693Z,64.63
2022-12-08T15:09:49.457Z,63.50
2022-12-08T15:12:27.542Z,53.33
2022-12-08T15:15:01.275Z,44.60
2022-12-08T15:17:51.037Z,37.05
2022-12-08T15:20:35.060Z,47.22
2022-12-08T15:23:03.393Z,39.95
2022-12-08T15:25:31.504Z,46.28
2022-12-08T15:27:58.819Z,59.75
2022-12-08T15:30:26.403Z,57.17
2022-12-08T15:32:55.422Z,63.80
2022-12-08T15:35:22.727Z,47.83
2022-12-08T15:37:50.082Z,57.17
2022-12-08T15:40:22.239Z,80.30
2022-12-08T15:42:49.599Z,99.63
2022-12-08T15:45:17.565Z,54.97
2022-12-08T15:47:45.501Z,52.47
2022-12-08T15:50:19.414Z,50.35
2022-12-08T15:52:47.504Z,57.42
2022-12-08T15:55:19.530Z,64.47
2022-12-08T16:00:55.055Z,45.03
2022-12-08T16:09:52.001Z,37.17
2022-12-08T16:13:48.274Z,43.38
2022-12-08T16:15:51.754Z,42.65
2022-12-08T16:18:27.016Z,43.92
2022-12-08T16:21:31.499Z,50.70
2022-12-08T16:23:45.512Z,42.78
2022-12-08T16:26:35.470Z,23.77
2022-12-08T16:29:05.541Z,28.38
2022-12-08T16:31:33.356Z,24.60
2022-12-08T16:34:00.848Z,15.35
2022-12-08T16:36:28.561Z,31.02
2022-12-08T16:38:56.050Z,42.88
2022-12-08T16:41:42.818Z,41.75
2022-12-08T16:44:10.418Z,36.53
2022-12-08T16:46:38.743Z,47.05
2022-12-08T16:49:08.747Z,68.25
2022-12-08T16:51:36.118Z,58.70
2022-12-08T16:54:04.142Z,54.90
2022-12-08T16:56:33.387Z,29.92
2022-12-08T16:59:02.102Z,31.15
2022-12-08T17:01:29.960Z,50.33
2022-12-08T17:06:45.093Z,32.35
2022-12-08T17:09:12.753Z,32.38
2022-12-08T17:11:43.446Z,91.70
2022-12-08T17:14:15.136Z,47.75
2022-12-08T17:16:43.908Z,87.43
2022-12-08T17:19:15.294Z,41.05
2022-12-08T17:21:44.360Z,40.17
2022-12-08T17:24:14.626Z,43.65
2022-12-08T17:26:43.254Z,70.90
2022-12-08T17:29:10.498Z,72.80
2022-12-08T17:31:37.932Z,63.22
2022-12-08T17:34:10.526Z,44.28
2022-12-08T17:36:37.850Z,54.67
2022-12-08T17:39:05.823Z,39.85
2022-12-08T17:41:33.020Z,54.72
2022-12-08T17:44:00.505Z,75.90
2022-12-08T17:46:28.114Z,89.13
2022-12-08T17:48:55.766Z,64.80
2022-12-08T17:51:23.140Z,94.18
2022-12-08T17:53:50.867Z,83.22
2022-12-08T17:56:20.912Z,56.85
2022-12-08T17:58:52.841Z,155.65
2022-12-08T18:01:23.578Z,76.32
2022-12-08T18:03:51.309Z,88.70
2022-12-08T18:06:18.903Z,70.53
2022-12-08T18:08:46.222Z,73.10
2022-12-08T18:11:18.862Z,84.00
2022-12-08T18:13:48.420Z,62.92
2022-12-08T18:16:17.904Z,81.70
2022-12-08T18:18:45.217Z,97.57
2022-12-08T18:21:12.659Z,110.28
2022-12-08T18:23:42.132Z,107.40
2022-12-08T18:26:13.285Z,150.75
2022-12-08T18:28:41.433Z,145.40
2022-12-08T18:31:14.650Z,160.13
2022-12-08T18:33:44.212Z,148.77
2022-12-08T18:36:18.214Z,165.55
2022-12-08T18:38:46.382Z,167.98
2022-12-08T18:41:22.829Z,214.07
2022-12-08T18:43:50.333Z,144.48
2022-12-08T18:46:17.884Z,212.80
2022-12-08T18:48:48.608Z,200.05
2022-12-08T18:51:23.731Z,167.10
2022-12-08T18:53:52.319Z,256.55
2022-12-08T18:56:28.171Z,204.07
2022-12-08T18:59:02.873Z,224.52
2022-12-08T19:01:37.263Z,208.40
2022-12-08T19:06:56.634Z,254.88
2022-12-08T19:09:26.112Z,327.60
2022-12-08T19:11:53.412Z,662.95
2022-12-08T19:14:27.476Z,192.25
2022-12-08T19:16:57.153Z,252.57
2022-12-08T19:19:26.477Z,328.13
2022-12-08T19:21:54.428Z,480.63
2022-12-08T19:24:22.320Z,247.88
2022-12-08T19:26:50.067Z,305.52
2022-12-08T19:29:17.643Z,250.18
2022-12-08T19:31:45.039Z,360.77
2022-12-08T19:34:13.880Z,226.20
2022-12-08T19:36:42.614Z,223.90
2022-12-08T19:39:41.662Z,217.68
2022-12-08T19:42:36.789Z,261.53
2022-12-08T19:45:11.273Z,289.27
2022-12-08T19:47:39.860Z,252.13
2022-12-08T19:50:27.818Z,178.50
2022-12-08T19:52:55.574Z,190.20
2022-12-08T19:55:23.688Z,146.75
2022-12-08T19:57:52.434Z,105.65
2022-12-08T20:00:20.785Z,133.15
2022-12-08T20:02:48.504Z,124.47
2022-12-08T20:05:16.028Z,126.00
2022-12-08T20:07:43.740Z,123.00
2022-12-08T20:10:22.368Z,98.13
2022-12-08T20:12:49.752Z,172.25
2022-12-08T20:15:17.169Z,122.63
2022-12-08T20:17:44.621Z,97.75
2022-12-08T20:20:13.559Z,72.05
2022-12-08T20:22:41.069Z,227.77
2022-12-08T20:25:12.741Z,111.72
2022-12-08T20:27:40.919Z,108.93
2022-12-08T20:30:15.064Z,84.60
2022-12-08T20:32:44.923Z,102.72
2022-12-08T20:35:12.667Z,115.15
2022-12-08T20:37:39.953Z,79.80
2022-12-08T20:40:08.211Z,138.85
2022-12-08T20:42:35.385Z,105.63
2022-12-08T20:45:05.808Z,109.30
2022-12-08T20:47:34.338Z,107.40
2022-12-08T20:50:02.852Z,79.95
2022-12-08T20:52:30.529Z,98.15
2022-12-08T20:54:57.952Z,46.42
2022-12-08T20:57:25.479Z,53.30
2022-12-08T20:59:52.835Z,45.25
2022-12-08T21:02:20.370Z,52.88
2022-12-08T21:04:47.876Z,78.95
2022-12-08T21:07:15.538Z,108.45
2022-12-08T21:09:43.332Z,87.20
2022-12-08T21:12:11.381Z,54.95
2022-12-08T21:14:39.894Z,34.55
2022-12-08T21:17:07.651Z,49.55
2022-12-08T21:19:35.345Z,35.25
2022-12-08T21:22:03.098Z,53.40
2022-12-08T21:24:34.371Z,38.67
2022-12-08T21:27:02.233Z,35.63
2022-12-08T21:29:29.895Z,34.67
2022-12-08T21:31:59.641Z,27.08
2022-12-08T21:36:58.456Z,26.48
2022-12-08T21:39:26.442Z,40.05
2022-12-08T21:42:12.440Z,51.72
2022-12-08T21:44:40.095Z,54.72
2022-12-08T21:47:08.437Z,26.75
2022-12-08T21:49:35.738Z,29.92
2022-12-08T21:52:03.331Z,46.17
2022-12-08T21:54:30.912Z,33.03
2022-12-08T21:56:58.108Z,45.40
2022-12-08T21:59:25.384Z,20.35
2022-12-08T22:01:52.779Z,28.95
2022-12-08T22:04:21.177Z,27.08
2022-12-08T22:06:48.794Z,24.98
2022-12-08T22:09:16.383Z,21.58
2022-12-08T22:11:44.183Z,25.48
2022-12-08T22:14:14.932Z,64.93
2022-12-08T22:16:43.845Z,72.80
2022-12-08T22:19:12.019Z,23.92
2022-12-08T22:21:39.212Z,25.73
2022-12-08T22:24:06.818Z,40.58
2022-12-08T22:26:34.446Z,28.60
2022-12-08T22:29:02.073Z,93.25
2022-12-08T22:31:29.846Z,37.25
2022-12-08T22:33:58.887Z,42.08
2022-12-08T22:36:27.643Z,41.78
2022-12-08T22:38:54.919Z,28.65
2022-12-08T22:41:22.779Z,326.05
2022-12-08T22:43:50.822Z,36.78
2022-12-08T22:46:25.209Z,37.42
2022-12-08T22:48:54.164Z,38.65
2022-12-08T22:51:21.577Z,39.10
2022-12-08T22:53:49.008Z,35.97
2022-12-08T22:56:18.114Z,56.33
2022-12-08T22:58:45.649Z,31.90
2022-12-08T23:01:30.292Z,70.78
2022-12-08T23:03:58.830Z,31.90
2022-12-08T23:06:27.468Z,43.47
2022-12-08T23:08:56.259Z,40.38
2022-12-08T23:11:28.728Z,27.50
2022-12-08T23:13:59.684Z,39.88
2022-12-08T23:16:27.186Z,27.35
2022-12-08T23:18:55.035Z,28.65
2022-12-08T23:21:22.418Z,64.80
2022-12-08T23:23:49.666Z,36.65
2022-12-08T23:26:26.220Z,22.92
2022-12-08T23:28:54.517Z,37.97
2022-12-08T23:31:22.923Z,23.20
2022-12-08T23:33:51.134Z,30.52
2022-12-08T23:36:20.926Z,19.10
2022-12-08T23:38:48.253Z,21.88
2022-12-08T23:41:16.035Z,38.20
2022-12-08T23:43:46.736Z,47.97
2022-12-08T23:46:16.319Z,24.58
2022-12-08T23:48:44.659Z,26.50
2022-12-08T23:51:12.672Z,21.45
2022-12-08T23:53:40.606Z,37.58
2022-12-08T23:56:12.176Z,24.50
2022-12-08T23:58:40.230Z,22.25
